Zephyr, Texas
Current Conditions -  °F | °C
As of 5:55 PM on Wednesday 28 Jan 2015 (Local Time) from KBWD Reporting Station
Clear Clear  
Wind Chill: 24°   Ceiling: Unl
Heat Index: 24°   Visibility: 10mi
Dew Point:   Wind: 7mph
Humidity: 25%   Direction: 190°S
Pressure: 30.01"   Gusts: NA
Location:  31.68°N, 98.79°W
Report Text: KBWD 282355Z AUTO 19006KT 10SM CLR 24/03 A3001 RMK AO2
Loading
Personal Weather Stations






























Interactive Weather Map New forecast layout! Learn more

10-Day Weather Forecast

Advertisements
Track Severe Weather on mobile